createdAt,value
2018-05-17T00:00:06.242Z,28.13
2018-05-17T00:02:34.684Z,26.17
2018-05-17T00:05:06.148Z,30.47
2018-05-17T00:07:34.619Z,30.40
2018-05-17T00:10:06.095Z,21.73
2018-05-17T00:12:34.405Z,21.07
2018-05-17T00:15:06.379Z,26.10
2018-05-17T00:17:34.681Z,25.60
2018-05-17T00:20:06.387Z,23.50
2018-05-17T00:22:35.098Z,21.73
2018-05-17T00:25:06.808Z,27.40
2018-05-17T00:27:35.097Z,28.93
2018-05-17T00:30:07.422Z,24.80
2018-05-17T00:32:35.718Z,27.23
2018-05-17T00:35:07.664Z,25.43
2018-05-17T00:37:36.237Z,26.77
2018-05-17T00:40:06.791Z,21.47
2018-05-17T00:42:35.094Z,26.00
2018-05-17T00:45:06.311Z,26.27
2018-05-17T00:47:34.883Z,23.90
2018-05-17T00:50:06.329Z,26.63
2018-05-17T00:52:34.627Z,20.90
2018-05-17T00:55:09.738Z,23.40
2018-05-17T00:57:38.041Z,23.90
2018-05-17T01:00:06.492Z,21.17
2018-05-17T01:02:34.807Z,22.87
2018-05-17T01:05:07.534Z,24.47
2018-05-17T01:07:36.138Z,22.03
2018-05-17T01:10:07.456Z,24.33
2018-05-17T01:12:35.972Z,26.73
2018-05-17T01:15:07.204Z,24.17
2018-05-17T01:17:35.503Z,21.77
2018-05-17T01:20:07.758Z,26.57
2018-05-17T01:22:36.055Z,22.63
2018-05-17T01:25:08.859Z,23.53
2018-05-17T01:27:37.175Z,24.40
2018-05-17T01:30:06.601Z,20.10
2018-05-17T01:32:34.897Z,26.57
2018-05-17T01:35:06.930Z,23.47
2018-05-17T01:37:47.091Z,22.90
2018-05-17T01:40:15.882Z,22.47
2018-05-17T01:42:44.168Z,23.53
2018-05-17T01:45:12.438Z,23.07
2018-05-17T01:47:40.741Z,22.50
2018-05-17T01:50:09.023Z,23.30
2018-05-17T01:52:37.419Z,21.57
2018-05-17T01:55:06.430Z,23.20
2018-05-17T01:57:34.945Z,28.93
2018-05-17T02:00:07.312Z,25.13
2018-05-17T02:02:35.703Z,25.27
2018-05-17T02:05:07.647Z,29.63
2018-05-17T02:07:35.942Z,33.97
2018-05-17T02:10:08.035Z,26.93
2018-05-17T02:12:36.310Z,21.53
2018-05-17T02:15:06.184Z,22.47
2018-05-17T02:17:34.467Z,21.00
2018-05-17T02:20:05.918Z,22.00
2018-05-17T02:22:34.458Z,24.83
2018-05-17T02:25:08.404Z,26.47
2018-05-17T02:27:36.683Z,23.60
2018-05-17T02:30:06.707Z,23.23
2018-05-17T02:32:35.347Z,19.20
2018-05-17T02:35:07.136Z,25.73
2018-05-17T02:37:35.419Z,26.83
2018-05-17T02:40:07.555Z,24.80
2018-05-17T02:42:35.827Z,30.90
2018-05-17T02:45:07.953Z,20.90
2018-05-17T02:47:36.392Z,27.07
2018-05-17T02:50:06.269Z,21.57
2018-05-17T02:52:34.543Z,26.67
2018-05-17T02:55:06.716Z,21.77
2018-05-17T02:57:35.235Z,19.27
2018-05-17T03:00:07.203Z,23.87
2018-05-17T03:02:35.471Z,24.90
2018-05-17T03:05:07.748Z,21.77
2018-05-17T03:07:36.022Z,20.60
2018-05-17T03:10:07.571Z,24.60
2018-05-17T03:12:35.847Z,29.10
2018-05-17T03:15:07.888Z,25.20
2018-05-17T03:17:36.167Z,28.77
2018-05-17T03:20:07.475Z,25.33
2018-05-17T03:22:35.747Z,25.67
2018-05-17T03:25:07.369Z,21.97
2018-05-17T03:27:35.714Z,28.47
2018-05-17T03:30:07.718Z,26.63
2018-05-17T03:32:35.999Z,27.83
2018-05-17T03:35:07.541Z,27.63
2018-05-17T03:37:35.807Z,25.57
2018-05-17T03:40:07.459Z,20.37
2018-05-17T03:42:35.739Z,28.00
2018-05-17T03:45:06.335Z,25.93
2018-05-17T03:47:34.956Z,25.30
2018-05-17T03:50:07.069Z,37.40
2018-05-17T03:52:35.697Z,28.60
2018-05-17T03:55:07.555Z,29.40
2018-05-17T03:57:35.841Z,27.67
2018-05-17T04:00:06.509Z,26.43
2018-05-17T04:02:46.478Z,24.80
2018-05-17T04:05:26.683Z,34.93
2018-05-17T04:07:54.971Z,35.37
2018-05-17T04:10:23.360Z,31.17
2018-05-17T04:12:52.211Z,37.67
2018-05-17T04:15:20.500Z,29.67
2018-05-17T04:17:48.784Z,29.97
2018-05-17T04:20:17.080Z,28.07
2018-05-17T04:22:45.427Z,28.67
2018-05-17T04:25:13.729Z,23.97
2018-05-17T04:27:42.007Z,28.43
2018-05-17T04:30:10.296Z,24.07
2018-05-17T04:32:38.581Z,33.10
2018-05-17T04:35:06.877Z,29.30
2018-05-17T04:37:35.164Z,22.83
2018-05-17T04:40:07.179Z,26.07
2018-05-17T04:42:35.930Z,28.27
2018-05-17T04:45:07.157Z,28.70
2018-05-17T04:47:35.442Z,23.90
2018-05-17T04:50:06.388Z,26.47
2018-05-17T04:52:35.365Z,26.77
2018-05-17T04:55:06.839Z,22.70
2018-05-17T04:57:35.115Z,25.87
2018-05-17T05:00:06.940Z,25.47
2018-05-17T05:02:35.328Z,30.30
2018-05-17T05:05:07.255Z,27.90
2018-05-17T05:07:35.548Z,34.10
2018-05-17T05:10:07.447Z,27.40
2018-05-17T05:12:35.746Z,28.27
2018-05-17T05:15:08.548Z,32.00
2018-05-17T05:17:36.846Z,28.57
2018-05-17T05:20:06.436Z,30.00
2018-05-17T05:22:34.877Z,27.40
2018-05-17T05:25:10.544Z,29.00
2018-05-17T05:27:39.011Z,26.77
2018-05-17T05:30:07.283Z,24.20
2018-05-17T05:32:35.584Z,29.10
2018-05-17T05:35:06.487Z,28.47
2018-05-17T05:37:34.867Z,25.97
2018-05-17T05:40:09.656Z,31.13
2018-05-17T05:42:37.988Z,33.47
2018-05-17T05:45:07.397Z,30.43
2018-05-17T05:47:35.863Z,26.57
2018-05-17T05:50:07.315Z,29.47
2018-05-17T05:52:35.649Z,23.57
2018-05-17T05:55:06.928Z,26.57
2018-05-17T05:57:35.346Z,27.60
2018-05-17T06:00:06.782Z,30.00
2018-05-17T06:02:35.079Z,26.53
2018-05-17T06:05:07.162Z,25.87
2018-05-17T06:07:35.587Z,27.33
2018-05-17T06:10:07.415Z,42.03
2018-05-17T06:12:35.709Z,31.73
2018-05-17T06:15:07.804Z,27.07
2018-05-17T06:17:36.117Z,28.73
2018-05-17T06:20:07.327Z,28.77
2018-05-17T06:22:35.803Z,32.43
2018-05-17T06:25:07.665Z,33.70
2018-05-17T06:27:36.208Z,40.10
2018-05-17T06:30:08.159Z,37.57
2018-05-17T06:32:36.460Z,37.00
2018-05-17T06:35:06.500Z,37.23
2018-05-17T06:37:34.896Z,38.80
2018-05-17T06:40:09.874Z,36.80
2018-05-17T06:42:38.667Z,36.90
2018-05-17T06:45:06.953Z,33.33
2018-05-17T06:47:35.246Z,35.43
2018-05-17T06:50:06.477Z,38.63
2018-05-17T06:52:34.767Z,35.60
2018-05-17T06:55:08.778Z,40.67
2018-05-17T06:57:37.348Z,46.53
2018-05-17T07:00:07.358Z,42.80
2018-05-17T07:02:35.849Z,40.93
2018-05-17T07:05:06.534Z,40.67
2018-05-17T07:07:35.491Z,48.97
2018-05-17T07:10:07.552Z,43.73
2018-05-17T07:12:36.267Z,39.77
2018-05-17T07:15:06.749Z,42.63
2018-05-17T07:17:35.129Z,38.40
2018-05-17T07:20:06.451Z,38.43
2018-05-17T07:22:34.744Z,43.23
2018-05-17T07:25:07.132Z,45.87
2018-05-17T07:27:35.625Z,42.73
2018-05-17T07:30:05.532Z,47.80
2018-05-17T07:32:33.987Z,38.87
2018-05-17T07:35:08.991Z,43.87
2018-05-17T07:37:37.292Z,41.73
2018-05-17T07:40:05.575Z,36.97
2018-05-17T07:42:33.974Z,44.37
2018-05-17T07:45:09.099Z,42.27
2018-05-17T07:47:37.455Z,44.77
2018-05-17T07:50:05.733Z,44.10
2018-05-17T07:52:34.013Z,44.20
2018-05-17T07:55:05.386Z,50.27
2018-05-17T07:57:33.665Z,40.60
2018-05-17T08:00:05.218Z,44.57
2018-05-17T08:02:33.514Z,48.27
2018-05-17T08:05:08.427Z,44.33
2018-05-17T08:07:36.704Z,39.77
2018-05-17T08:10:06.326Z,43.10
2018-05-17T08:12:34.606Z,48.73
2018-05-17T08:15:05.706Z,40.53
2018-05-17T08:17:33.980Z,47.43
2018-05-17T08:20:09.141Z,48.47
2018-05-17T08:22:37.416Z,48.60
2018-05-17T08:25:05.983Z,51.43
2018-05-17T08:27:35.112Z,48.17
2018-05-17T08:30:07.028Z,43.70
2018-05-17T08:32:35.309Z,44.57
2018-05-17T08:35:07.435Z,47.80
2018-05-17T08:37:35.728Z,42.97
2018-05-17T08:40:05.878Z,43.20
2018-05-17T08:42:34.282Z,47.03
2018-05-17T08:45:06.549Z,42.93
2018-05-17T08:47:34.898Z,43.73
2018-05-17T08:50:06.994Z,45.87
2018-05-17T08:52:35.261Z,41.53
2018-05-17T08:55:07.201Z,42.47
2018-05-17T08:57:35.499Z,39.43
2018-05-17T09:00:05.622Z,41.07
2018-05-17T09:02:33.903Z,36.57
2018-05-17T09:05:05.436Z,35.20
2018-05-17T09:07:33.709Z,32.60
2018-05-17T09:10:05.064Z,34.93
2018-05-17T09:12:33.339Z,34.17
2018-05-17T09:15:08.011Z,32.87
2018-05-17T09:17:36.434Z,34.03
2018-05-17T09:20:06.154Z,30.60
2018-05-17T09:22:34.539Z,32.23
2018-05-17T09:25:06.586Z,30.37
2018-05-17T09:27:34.857Z,27.90
2018-05-17T09:30:05.782Z,26.87
2018-05-17T09:32:34.676Z,26.57
2018-05-17T09:35:05.639Z,27.93
2018-05-17T09:37:33.915Z,34.13
2018-05-17T09:40:07.269Z,30.23
2018-05-17T09:42:35.547Z,30.07
2018-05-17T09:45:06.971Z,27.53
2018-05-17T09:47:35.351Z,27.47
2018-05-17T09:50:07.352Z,27.77
2018-05-17T09:52:35.630Z,27.43
2018-05-17T09:55:05.704Z,25.83
2018-05-17T09:57:33.927Z,23.13
2018-05-17T10:00:05.359Z,26.13
2018-05-17T10:02:33.882Z,22.23
2018-05-17T10:05:06.144Z,34.57
2018-05-17T10:07:34.431Z,21.77
2018-05-17T10:10:05.757Z,20.20
2018-05-17T10:12:34.276Z,19.00
2018-05-17T10:15:05.811Z,20.97
2018-05-17T10:17:34.111Z,19.03
2018-05-17T10:20:05.758Z,22.23
2018-05-17T10:22:34.214Z,20.57
2018-05-17T10:25:06.136Z,21.43
2018-05-17T10:27:34.558Z,20.03
2018-05-17T10:30:06.776Z,20.30
2018-05-17T10:32:35.594Z,20.53
2018-05-17T10:35:06.995Z,22.23
2018-05-17T10:37:35.353Z,20.40
2018-05-17T10:40:06.628Z,23.33
2018-05-17T10:42:34.905Z,22.83
2018-05-17T10:45:05.895Z,23.47
2018-05-17T10:47:34.486Z,22.77
2018-05-17T10:50:06.627Z,24.07
2018-05-17T10:52:34.899Z,22.63
2018-05-17T10:55:06.849Z,24.63
2018-05-17T10:57:35.138Z,24.70
2018-05-17T11:00:07.188Z,25.00
2018-05-17T11:02:35.648Z,22.80
2018-05-17T11:05:07.586Z,23.40
2018-05-17T11:07:35.858Z,20.47
2018-05-17T11:10:05.715Z,19.87
2018-05-17T11:12:34.033Z,25.40
2018-05-17T11:15:09.100Z,19.43
2018-05-17T11:17:37.379Z,25.20
2018-05-17T11:20:05.796Z,21.57
2018-05-17T11:22:34.082Z,16.17
2018-05-17T11:25:09.134Z,18.73
2018-05-17T11:27:37.619Z,21.67
2018-05-17T11:30:05.964Z,16.57
2018-05-17T11:32:34.258Z,20.37
2018-05-17T11:35:09.336Z,20.30
2018-05-17T11:37:37.892Z,23.70
2018-05-17T11:40:06.280Z,17.00
2018-05-17T11:42:34.751Z,18.13
2018-05-17T11:45:06.702Z,20.20
2018-05-17T11:47:35.191Z,17.97
2018-05-17T11:50:08.959Z,18.20
2018-05-17T11:52:37.266Z,17.80
2018-05-17T11:55:06.568Z,22.00
2018-05-17T11:57:34.848Z,19.87
2018-05-17T12:00:05.690Z,20.27
2018-05-17T12:02:34.055Z,17.67
2018-05-17T12:05:07.781Z,18.47
2018-05-17T12:07:36.119Z,18.57
2018-05-17T12:10:05.767Z,16.57
2018-05-17T12:12:34.055Z,17.43
2018-05-17T12:15:05.436Z,17.97
2018-05-17T12:17:33.735Z,24.30
2018-05-17T12:20:05.200Z,22.30
2018-05-17T12:22:33.491Z,18.60
2018-05-17T12:25:05.624Z,16.57
2018-05-17T12:27:33.915Z,17.93
2018-05-17T12:30:05.439Z,18.93
2018-05-17T12:32:33.772Z,20.00
2018-05-17T12:35:08.799Z,17.60
2018-05-17T12:37:37.090Z,18.70
2018-05-17T12:40:06.064Z,19.90
2018-05-17T12:42:34.348Z,20.13
2018-05-17T12:45:06.048Z,20.63
2018-05-17T12:47:35.202Z,18.00
2018-05-17T12:50:07.221Z,18.60
2018-05-17T12:52:35.515Z,17.13
2018-05-17T12:55:06.744Z,18.10
2018-05-17T12:57:35.195Z,18.83
2018-05-17T13:00:07.102Z,17.63
2018-05-17T13:02:35.428Z,18.37
2018-05-17T13:05:08.440Z,20.47
2018-05-17T13:07:36.742Z,16.60
2018-05-17T13:10:06.255Z,18.70
2018-05-17T13:12:34.548Z,18.27
2018-05-17T13:15:06.728Z,19.80
2018-05-17T13:17:35.250Z,23.27
2018-05-17T13:20:07.000Z,17.53
2018-05-17T13:22:35.292Z,16.87
2018-05-17T13:25:06.476Z,19.20
2018-05-17T13:27:34.770Z,16.93
2018-05-17T13:30:06.751Z,15.97
2018-05-17T13:32:35.049Z,16.87
2018-05-17T13:35:07.041Z,19.57
2018-05-17T13:37:35.367Z,20.87
2018-05-17T13:40:07.523Z,17.10
2018-05-17T13:42:36.059Z,21.87
2018-05-17T13:45:06.052Z,16.57
2018-05-17T13:47:34.363Z,20.30
2018-05-17T13:50:05.698Z,19.20
2018-05-17T13:52:33.983Z,16.63
2018-05-17T13:55:05.839Z,21.27
2018-05-17T13:57:34.128Z,18.20
2018-05-17T14:00:05.944Z,16.43
2018-05-17T14:02:34.329Z,18.37
2018-05-17T14:05:06.213Z,26.03
2018-05-17T14:07:34.523Z,20.07
2018-05-17T14:10:05.932Z,18.80
2018-05-17T14:12:34.214Z,14.30
2018-05-17T14:15:05.899Z,17.30
2018-05-17T14:17:34.483Z,17.43
2018-05-17T14:20:06.688Z,18.67
2018-05-17T14:22:35.207Z,16.83
2018-05-17T14:25:07.200Z,13.87
2018-05-17T14:27:35.940Z,17.80
2018-05-17T14:30:06.168Z,19.97
2018-05-17T14:32:34.463Z,17.27
2018-05-17T14:35:05.991Z,23.40
2018-05-17T14:37:34.275Z,17.40
2018-05-17T14:40:05.771Z,19.90
2018-05-17T14:42:34.115Z,23.53
2018-05-17T14:45:05.771Z,24.10
2018-05-17T14:47:34.076Z,25.37
2018-05-17T14:50:08.963Z,22.27
2018-05-17T14:52:38.015Z,21.50
2018-05-17T14:55:06.305Z,17.63
2018-05-17T14:57:34.573Z,19.67
2018-05-17T15:00:06.153Z,17.53
2018-05-17T15:02:34.538Z,27.10
2018-05-17T15:05:06.650Z,58.97
2018-05-17T15:07:34.923Z,25.83
2018-05-17T15:10:07.054Z,19.03
2018-05-17T15:12:35.327Z,16.20
2018-05-17T15:15:07.795Z,17.80
2018-05-17T15:17:36.070Z,16.97
2018-05-17T15:20:08.499Z,16.20
2018-05-17T15:22:36.792Z,17.67
2018-05-17T15:25:06.411Z,18.73
2018-05-17T15:27:34.755Z,16.70
2018-05-17T15:30:06.812Z,17.00
2018-05-17T15:32:35.098Z,18.90
2018-05-17T15:35:07.136Z,16.30
2018-05-17T15:37:35.410Z,14.93
2018-05-17T15:40:08.238Z,28.10
2018-05-17T15:42:37.078Z,18.33
2018-05-17T15:45:06.905Z,16.33
2018-05-17T15:47:35.452Z,14.10
2018-05-17T15:50:06.006Z,18.50
2018-05-17T15:52:34.279Z,15.50
2018-05-17T15:55:05.800Z,16.97
2018-05-17T15:57:34.074Z,11.67
2018-05-17T16:00:05.541Z,13.80
2018-05-17T16:02:34.819Z,13.20
2018-05-17T16:05:06.586Z,14.77
2018-05-17T16:07:34.864Z,15.60
2018-05-17T16:10:06.188Z,12.40
2018-05-17T16:12:34.475Z,14.13
2018-05-17T16:15:09.594Z,17.17
2018-05-17T16:17:37.903Z,10.87
2018-05-17T16:20:06.176Z,13.97
2018-05-17T16:22:34.659Z,12.37
2018-05-17T16:25:06.803Z,12.10
2018-05-17T16:27:35.090Z,18.43
2018-05-17T16:30:06.307Z,15.67
2018-05-17T16:32:34.823Z,22.27
2018-05-17T16:35:06.296Z,16.53
2018-05-17T16:37:34.567Z,12.30
2018-05-17T16:40:08.719Z,12.03
2018-05-17T16:42:37.074Z,14.03
2018-05-17T16:45:06.734Z,12.23
2018-05-17T16:47:35.149Z,14.53
2018-05-17T16:50:07.111Z,13.23
2018-05-17T16:52:35.641Z,17.53
2018-05-17T16:55:07.599Z,12.27
2018-05-17T16:57:36.030Z,13.57
2018-05-17T17:00:06.141Z,13.47
2018-05-17T17:02:34.439Z,13.17
2018-05-17T17:05:06.301Z,16.97
2018-05-17T17:07:34.600Z,15.40
2018-05-17T17:10:06.308Z,16.77
2018-05-17T17:12:34.602Z,16.53
2018-05-17T17:15:06.769Z,12.43
2018-05-17T17:17:35.041Z,18.00
2018-05-17T17:20:07.087Z,15.47
2018-05-17T17:22:36.538Z,16.20
2018-05-17T17:25:06.732Z,14.47
2018-05-17T17:27:35.054Z,15.47
2018-05-17T17:30:07.007Z,54.87
2018-05-17T17:32:35.316Z,17.20
2018-05-17T17:35:07.403Z,15.77
2018-05-17T17:37:35.692Z,12.77
2018-05-17T17:40:07.243Z,13.80
2018-05-17T17:42:35.527Z,16.67
2018-05-17T17:45:07.787Z,14.67
2018-05-17T17:47:36.092Z,17.90
2018-05-17T17:50:09.336Z,14.43
2018-05-17T17:52:37.651Z,14.77
2018-05-17T17:55:06.435Z,12.80
2018-05-17T17:57:34.745Z,17.67
2018-05-17T18:00:06.111Z,18.47
2018-05-17T18:02:34.414Z,15.53
2018-05-17T18:05:05.897Z,13.97
2018-05-17T18:07:34.235Z,18.80
2018-05-17T18:10:05.520Z,22.17
2018-05-17T18:12:33.817Z,15.80
2018-05-17T18:15:07.202Z,17.20
2018-05-17T18:17:35.528Z,20.23
2018-05-17T18:20:07.296Z,21.63
2018-05-17T18:22:35.744Z,18.33
2018-05-17T18:25:06.537Z,18.47
2018-05-17T18:27:34.808Z,15.13
2018-05-17T18:30:06.134Z,12.13
2018-05-17T18:32:34.435Z,16.23
2018-05-17T18:35:05.977Z,16.40
2018-05-17T18:37:34.264Z,17.40
2018-05-17T18:40:05.492Z,17.60
2018-05-17T18:42:33.775Z,21.90
2018-05-17T18:45:08.497Z,15.43
2018-05-17T18:47:36.792Z,19.20
2018-05-17T18:50:06.203Z,20.40
2018-05-17T18:52:34.479Z,13.67
2018-05-17T18:55:05.931Z,20.10
2018-05-17T18:57:34.224Z,16.20
2018-05-17T19:00:09.263Z,19.00
2018-05-17T19:02:37.508Z,16.87
2018-05-17T19:05:06.807Z,15.13
2018-05-17T19:07:35.124Z,16.80
2018-05-17T19:10:07.166Z,19.73
2018-05-17T19:12:35.479Z,16.47
2018-05-17T19:15:06.165Z,17.10
2018-05-17T19:17:35.287Z,18.23
2018-05-17T19:20:06.525Z,20.17
2018-05-17T19:22:34.879Z,19.80
2018-05-17T19:25:08.784Z,13.20
2018-05-17T19:27:37.120Z,25.43
2018-05-17T19:30:06.338Z,17.30
2018-05-17T19:32:34.727Z,15.03
2018-05-17T19:35:06.471Z,16.20
2018-05-17T19:37:34.797Z,17.83
2018-05-17T19:40:08.754Z,19.67
2018-05-17T19:42:37.143Z,34.73
2018-05-17T19:45:06.592Z,70.07
2018-05-17T19:47:34.872Z,19.10
2018-05-17T19:50:08.855Z,15.90
2018-05-17T19:52:37.157Z,19.43
2018-05-17T19:55:06.731Z,34.90
2018-05-17T19:57:35.153Z,17.67
2018-05-17T20:00:07.015Z,15.13
2018-05-17T20:02:35.328Z,19.70
2018-05-17T20:05:07.373Z,19.83
2018-05-17T20:07:35.681Z,16.63
2018-05-17T20:10:07.745Z,21.50
2018-05-17T20:12:36.039Z,22.23
2018-05-17T20:15:07.867Z,14.10
2018-05-17T20:17:36.179Z,15.80
2018-05-17T20:20:06.252Z,19.87
2018-05-17T20:22:34.632Z,18.37
2018-05-17T20:25:06.452Z,19.37
2018-05-17T20:27:34.751Z,20.43
2018-05-17T20:30:06.908Z,21.43
2018-05-17T20:32:35.217Z,26.07
2018-05-17T20:35:07.133Z,19.37
2018-05-17T20:37:35.461Z,18.50
2018-05-17T20:40:06.269Z,22.57
2018-05-17T20:42:34.579Z,19.00
2018-05-17T20:45:09.756Z,20.20
2018-05-17T20:47:38.429Z,19.37
2018-05-17T20:50:06.696Z,18.90
2018-05-17T20:52:34.999Z,17.30
2018-05-17T20:55:06.987Z,19.97
2018-05-17T20:57:35.215Z,23.90
2018-05-17T21:00:06.251Z,21.73
2018-05-17T21:02:34.544Z,23.37
2018-05-17T21:05:09.664Z,18.40
2018-05-17T21:07:37.967Z,21.20
2018-05-17T21:10:06.665Z,24.60
2018-05-17T21:12:34.956Z,20.50
2018-05-17T21:15:09.040Z,25.40
2018-05-17T21:17:37.307Z,26.73
2018-05-17T21:20:06.737Z,19.43
2018-05-17T21:22:35.256Z,28.37
2018-05-17T21:25:07.096Z,18.17
2018-05-17T21:27:35.372Z,19.43
2018-05-17T21:30:07.500Z,23.20
2018-05-17T21:32:35.770Z,27.23
2018-05-17T21:35:07.020Z,19.43
2018-05-17T21:37:35.315Z,17.60
2018-05-17T21:40:06.540Z,22.93
2018-05-17T21:42:34.807Z,23.07
2018-05-17T21:45:06.176Z,26.63
2018-05-17T21:47:35.118Z,20.87
2018-05-17T21:50:06.951Z,22.97
2018-05-17T21:52:35.635Z,20.90
2018-05-17T21:55:07.160Z,24.03
2018-05-17T21:57:35.446Z,22.40
2018-05-17T22:00:07.463Z,21.17
2018-05-17T22:02:35.844Z,28.73
2018-05-17T22:05:06.439Z,22.17
2018-05-17T22:07:35.692Z,20.03
2018-05-17T22:10:07.115Z,24.40
2018-05-17T22:12:35.424Z,26.77
2018-05-17T22:15:07.460Z,20.53
2018-05-17T22:17:35.780Z,26.20
2018-05-17T22:20:07.823Z,47.50
2018-05-17T22:22:36.507Z,17.53
2018-05-17T22:25:08.112Z,23.83
2018-05-17T22:27:36.802Z,28.60
2018-05-17T22:30:06.510Z,25.27
2018-05-17T22:32:34.795Z,20.80
2018-05-17T22:35:06.380Z,20.30
2018-05-17T22:37:34.651Z,21.53
2018-05-17T22:40:06.377Z,21.37
2018-05-17T22:42:34.690Z,26.93
2018-05-17T22:45:06.212Z,22.47
2018-05-17T22:47:34.492Z,22.53
2018-05-17T22:50:06.020Z,28.23
2018-05-17T22:52:34.298Z,19.63
2018-05-17T22:55:06.213Z,25.77
2018-05-17T22:57:46.317Z,22.40
2018-05-17T23:00:16.550Z,32.67
2018-05-17T23:02:44.827Z,22.47
2018-05-17T23:05:13.403Z,22.87
2018-05-17T23:07:41.671Z,21.80
2018-05-17T23:10:10.191Z,17.00
2018-05-17T23:12:38.630Z,26.60
2018-05-17T23:15:06.907Z,19.97
2018-05-17T23:17:35.206Z,25.77
2018-05-17T23:20:07.400Z,25.60
2018-05-17T23:22:36.502Z,18.17
2018-05-17T23:25:09.191Z,28.50
2018-05-17T23:27:37.478Z,24.00
2018-05-17T23:30:07.659Z,22.97
2018-05-17T23:32:35.958Z,32.13
2018-05-17T23:35:07.351Z,25.43
2018-05-17T23:37:35.652Z,25.80
2018-05-17T23:43:06.574Z,20.73
2018-05-17T23:45:34.974Z,22.67
2018-05-17T23:48:03.277Z,24.23
2018-05-17T23:50:31.563Z,25.23
2018-05-17T23:52:59.963Z,22.30
2018-05-17T23:55:28.226Z,26.37
2018-05-17T23:57:56.528Z,18.43
